aviador You're here:

KATL Decoded Metar

ATLANTA in GA, USA
Report Time2017-06-25 19:52:00
UTC Time2017-06-25 20:42:02
Flight Rules vfr VFR
Wind330° at 12 kt
W.Decomp.*RWY 28: 6.9 kt HW 9.8 kt RCW
RWY 27: 5.1 kt HW 10.9 kt RCW
RWY 26: 3.1 kt HW 11.6 kt RCW
W.Rank330° ranks 3
Current wind is above 330° avg. (8.8)
Visibility9999 m
Phenomena:N/A
Clouds:Broken 180 Hf
Broken 250 Hf
Expected CloudBase > 4,000 ft AGL from Temp-Dew spread
Ceiling18,000 ft
Temp27°C (ISA +14)
Dew Point17°C (54% RH)
Heat Index27.7°C
AAT25.0°C
QNH1020 hPa
Density Alt2,602 ft
Elevation971 ft
Report Wrong Elevation
Raw Report
KATL 251952Z 33012KT 10SM BKN180 BKN250 27/17 A3013 RMK AO2 SLP193
T02670167=

Extra information for KATL:More info

Metar Taf Metar & Taf Last 4 Metars F.Rules Stats Wind Profile Meteogram Temp Stats Airport Information Weather charts Add Link Nearby VenuesMetar ALERT Operation Metar Decoded Social comments

AIRNAV info for KATL